Tiempo atmosférico en la estación meteorológica de San Sebastián De La Gomera, Santa Cruz de Tenerife (15 m.)



Fecha
DESCASC
Temp. máxima en grados centígrados (hora)
DESCASC
Temp. mínima en grados centígrados (hora)
DESCASC
Temp. media en grados centígrados
DESCASC
Racha de viento máxima en m/sg (hora)
DESCASC
Velocidad máxima media en intervalos de 10 minutos(hora)
DESCASC
Precipitaciones diarias en mm
DESCASC
Precipitaciones de 00:00 a 06:00 en mm
DESCASC
Precipitaciones de 06:00 a 12:00 en mm
DESCASC
Precipitaciones de 12:00 a 18:00 en mm
DESCASC
Precipitaciones de 18:00 a 24:00 en mm
DESCASC
23-06-2019 25.9 (17:00) 21.7 (08:00) 23.8 10 (00:10) 5 (00:30) 0 0 0 0 0
22-06-2019 25.9 (17:20) 20.9 (03:40) 23.4 11.67 (18:40) 6.11 (18:10) 0 0 0 0 0
21-06-2019 25.6 (14:20) 21.2 (05:50) 23.4 14.17 (11:20) 5.83 (07:30) 0 0 0 0 0
20-06-2019 26.9 (15:10) 21.1 (00:00) 24 12.78 (19:50) 5.56 (07:10) 0 0 0 0 0
19-06-2019 24.7 (10:10) 20.1 (00:00) 22.4 8.33 (13:50) 4.72 (13:50) 0 0 0 0 0
18-06-2019 24.7 (16:30) 20.2 (00:00) 22.5 6.67 (20:20) 3.33 (20:00) 0 0 0 0 0
17-06-2019 24.9 (16:30) 18.2 (00:00) 21.6 6.11 (21:20) 2.22 (20:50) 0 0 0 0 0
16-06-2019 24.1 (16:20) 17 (00:00) 20.6 6.67 (13:10) 3.89 (13:00) 0 0 0 0 0
15-06-2019 22.1 (09:50) 17.8 (00:00) 19.9 6.67 (13:50) 5 (13:50) 0 0 0 0 0
14-06-2019 23.2 (11:00) 19.2 (00:00) 21.2 8.33 (09:20) 4.72 (14:40) 0 0 0 0 0
13-06-2019 24.6 (15:30) 19.4 (00:00) 22 11.39 (00:20) 5 (02:10) 0 0 0 0 0
12-06-2019 24.3 (17:10) 19.3 (00:00) 21.8 14.44 (04:10) 7.22 (08:20) 0 0 0 0 0
11-06-2019 24 (13:40) 19.5 (00:00) 21.8 16.39 (03:40) 7.5 (06:40) 0 0 0 0 0
10-06-2019 24.1 (15:00) 19.4 (00:00) 21.8 15.83 (23:59) 7.5 (22:10) 0 0 0 0 0
09-06-2019 23.6 (14:40) 19.3 (00:00) 21.4 15 (20:20) 6.39 (17:20) 0 0 0 0 0
08-06-2019 24.6 (13:20) 19.9 (00:00) 22.3 13.61 (23:10) 5.83 (21:40) 0 0 0 0 0
07-06-2019 25.2 (15:50) 19.3 (00:00) 22.3 12.78 (00:40) 5.83 (00:50) 0 0 0 0 0
06-06-2019 23.2 (13:40) 19.5 (00:00) 21.4 12.78 (23:50) 6.11 (01:50) 0 0 0 0 0
05-06-2019 25.1 (15:20) 20.3 (00:00) 22.7 14.72 (03:00) 6.67 (10:50) 0 0 0 0 0
04-06-2019 29.1 (16:20) 21.3 (00:00) 25.2 14.72 (22:50) 8.06 (22:30) 0 0 0 0 0
03-06-2019 33.5 (13:10) 20.2 (00:00) 26.9 13.33 (11:30) 5.83 (12:20) 0 0 0 0 0
02-06-2019 25.2 (13:50) 18.3 (00:00) 21.8 7.5 (13:10) 5.28 (17:30) 0 0 0 0 0
01-06-2019 24.3 (17:10) 18.3 (00:00) 21.3 10.83 (11:40) 5.28 (15:50) 0 0 0 0 0
31-05-2019 22.4 (16:00) 17 (00:00) 19.7 8.06 (17:10) 5.28 (17:10) 0 0 0 0 0
30-05-2019 22.6 (11:20) 17.5 (00:00) 20.1 12.5 (03:50) 6.39 (01:00) 0 0 0 0 0
29-05-2019 24.5 (15:10) 19 (00:00) 21.8 14.72 (22:00) 8.33 (22:30) 0 0 0 0 0
28-05-2019 24 (17:30) 19.9 (00:00) 21.9 13.89 (02:00) 7.78 (13:50) 0 0 0 0 0
27-05-2019 27 (16:00) 19.7 (00:00) 23.4 13.61 (22:20) 7.22 (09:50) 0 0 0 0 0
26-05-2019 24.1 (16:10) 19.4 (00:00) 21.8 15.28 (00:10) 7.22 (17:50) 0 0 0 0 0
25-05-2019 23.8 (17:50) 19.7 (00:00) 21.8 16.94 (22:00) 6.67 (23:50) 0 0 0 0 0

Gráficas

Temp. máximas Temp. mínimas Temp. medias Precipitaciones Rachas de viento máximas Velocidades máximas media en intervalos de 10 minutos

Datos horarios

Fecha y hora oficial Temperatura (ºC) Velocidad del viento (km/h) Dirección del viento Racha (km/h) Dirección de racha Precipitación (mm) Presión (hPa) Tendencia (hPa) Humedad (%)
2019-06-23 23:00:00 23.9 7 Noroeste 15 Norte 0 1014.6 1.3 84
2019-06-23 22:00:00 23.5 2 Sudoeste 10 Este 0 1014.4 1.2 90
2019-06-23 21:00:00 24 3 Este 10 Este 0 1013.7 0.3 86
2019-06-23 20:00:00 24.5 5 Sur 17 Sur 0 1013.3 -0.9 84
2019-06-23 19:00:00 23.8 10 Sur 16 Sur 0 1013.2 -1.6 87
2019-06-23 18:00:00 24.9 6 Sudeste 17 Este 0 1013.4 -2.1 84
2019-06-23 17:00:00 25.4 4 Este 16 Este 0 1014.2 -1.5 79
2019-06-23 16:00:00 25.8 4 Sudeste 13 Sudeste 0 1014.8 -1.2 79
2019-06-23 15:00:00 24.8 7 Sudeste 13 Sur 0 1015.5 -0.3 81
2019-06-23 14:00:00 24.4 6 Sudeste 14 Sur 0 1015.7 0.2 85
2019-06-23 13:00:00 24.2 5 Sudeste 15 Este 0 1016 0.6 86
2019-06-23 12:00:00 24.2 5 Este 18 Sur 0 1015.8 0.5 84
2019-06-23 11:00:00 22.5 14 Sur 19 Sur 0 1015.5 1 87
2019-06-23 10:00:00 22.8 9 Sur 19 Sur 0 1015.4 1.4 86
2019-06-23 09:00:00 22.3 11 Sur 18 Sur 0 1015.3 1.1 83
2019-06-23 08:00:00 21.9 6 Este 17 Norte 0 1014.5 0.3 84
2019-06-23 07:00:00 22.6 9 Norte 27 Norte 0 1014 -0.5 76
2019-06-23 06:00:00 22.4 12 Norte 25 Norte 0 1014.2 -0.8 79
2019-06-23 05:00:00 22.2 9 Norte 18 Nordeste 0 1014.2 -1.6 80
2019-06-23 04:00:00 22.4 4 Norte 23 Nordeste 0 1014.5 -2 77
2019-06-23 03:00:00 22.3 10 Norte 28 Norte 0 1015 -1.6 77
2019-06-23 02:00:00 22.3 13 Norte 36 Norte 0 1015.8 -0.6 78
2019-06-23 01:00:00 22.4 14 Norte 36 Nordeste 0 1016.5 0.9 79
2019-06-23 00:00:00 22.6 16 Norte 31 Norte 0 1016.6 0.9 77
2019-06-22 23:00:00 22.7 13 Norte 29 Norte 0 1016.4 1.2 77
2019-06-22 22:00:00 22.6 16 Norte 34 Norte 0 1015.6 0.7 77
2019-06-22 21:00:00 23.2 16 Norte 32 Norte 0 1015.7 0.4 74
2019-06-22 20:00:00 24.7 9 Noroeste 36 Norte 0 1015.2 -0.8 68
2019-06-22 19:00:00 24.9 15 Norte 42 Norte 0 1014.9 -1.6 65
2019-06-22 18:00:00 25 18 Noroeste 42 Norte 0 1015.3 -1.5 63
2019-06-22 17:00:00 25.3 12 Este 30 Nordeste 0 1016 -0.9 61
2019-06-22 16:00:00 22.8 15 Sur 23 Sur 0 1016.5 -1.1 80
2019-06-22 15:00:00 23.3 10 Sur 23 Sur 0 1016.8 -0.8 73
2019-06-22 14:00:00 22.9 14 Sur 26 Sur 0 1016.9 -0.7 80
2019-06-22 13:00:00 23.6 8 Sur 24 Sur 0 1017.6 0.2 75
2019-06-22 12:00:00 25.2 8 Noroeste 29 Norte 0 1017.6 0.1 55
2019-06-22 11:00:00 23.6 10 Norte 33 Nordeste 0 1017.6 0.4 65
2019-06-22 10:00:00 23.1 10 Norte 38 Norte 0 1017.4 0.6 72
2019-06-22 09:00:00 21.6 19 Norte 34 Norte 0 1017.5 1 78
2019-06-22 08:00:00 21.1 12 Norte 29 Norte 0 1017.2 0.8 79
2019-06-22 07:00:00 21 13 Norte 31 Noroeste 0 1016.8 0.5 81
2019-06-22 06:00:00 21 16 Norte 30 Norte 0 1016.5 -0.2 83
2019-06-22 05:00:00 21.1 14 Norte 36 Norte 0 1016.4 -1 79
2019-06-22 04:00:00 20.9 15 Norte 35 Norte 0 1016.3 -1.4 80
2019-06-22 03:00:00 21.1 15 Norte 36 Nordeste 0 1016.7 -1 78
2019-06-22 02:00:00 21.2 9 Norte 30 Norte 0 1017.4 -0.5 77
2019-06-22 01:00:00 21.3 11 Norte 35 Norte 0 1017.7 0.3 76
2019-06-22 00:00:00 21.4 14 Noroeste 34 Noroeste 0 1017.7 0.5 77
2019-06-21 23:00:00 21.7 14 Norte 33 Norte 0 1017.9 0.8 77
2019-06-21 22:00:00 21.8 12 Noroeste 33 Norte 0 1017.4 0.5 76
2019-06-21 21:00:00 22.2 15 Noroeste 42 Oeste 0 1017.2 0 69
2019-06-21 20:00:00 23.2 17 Norte 38 Noroeste 0 1017.1 -0.4 63
2019-06-21 19:00:00 24.4 17 Noroeste 43 Noroeste 0 1016.9 -0.9 61
2019-06-21 18:00:00 25 16 Noroeste 40 Oeste 0 1017.2 -0.7 60
2019-06-21 17:00:00 24.9 12 Noroeste 43 Nordeste 0 1017.5 -0.6 64
2019-06-21 16:00:00 24.8 14 Noroeste 34 Oeste 0 1017.8 -0.4 67
2019-06-21 15:00:00 25.2 10 Noroeste 35 Noroeste 0 1017.9 -0.3 66
2019-06-21 14:00:00 24.3 15 Noroeste 36 Norte 0 1018.1 0.1 66
2019-06-21 13:00:00 24.4 15 Norte 37 Norte 0 1018.2 0.4 66
2019-06-21 12:00:00 24.1 17 Noroeste 51 Nordeste 0 1018.2 0.3 71
2019-06-21 11:00:00 23 18 Noroeste 42 Noroeste 0 1018 0.7 75
2019-06-21 10:00:00 23 12 Norte 43 Nordeste 0 1017.8 0.9 78
2019-06-21 09:00:00 21.9 17 Norte 36 Noroeste 0 1017.9 1 82
2019-06-21 08:00:00 21.5 16 Norte 45 Noroeste 0 1017.3 0.2 81
2019-06-21 07:00:00 21.3 14 Norte 35 Norte 0 1016.9 -0.4 83
2019-06-21 06:00:00 21.2 15 Noroeste 38 Noroeste 0 1016.9 -1 82
2019-06-21 05:00:00 21.4 14 Norte 32 Oeste 0 1017.1 -1 83
2019-06-21 04:00:00 21.5 14 Norte 40 Norte 0 1017.3 -1.3 84
2019-06-21 03:00:00 21.6 13 Norte 41 Norte 0 1017.9 -0.7 83
2019-06-21 02:00:00 21.7 16 Noroeste 41 Norte 0 1018.1 -0.1 82
2019-06-21 01:00:00 21.9 15 Norte 34 Noroeste 0 1018.6 0.7 84
2019-06-21 00:00:00 22.1 15 Noroeste 36 Norte 0 1018.6 1 84
2019-06-20 23:00:00 22.3 13 Norte 39 Oeste 0 1018.2 1 83
2019-06-20 22:00:00 22.2 14 Norte 33 Norte 0 1017.9 0.8 82
2019-06-20 21:00:00 22.6 12 Noroeste 40 Noroeste 0 1017.6 0.2 81
2019-06-20 20:00:00 22.8 18 Noroeste 46 Noroeste 0 1017.2 -0.4 76
2019-06-20 19:00:00 24.1 15 Noroeste 37 Norte 0 1017.1 -0.5 69
2019-06-20 18:00:00 24.7 14 Noroeste 37 Norte 0 1017.4 -0.3 64
2019-06-20 17:00:00 25.7 6 Noroeste 36 Norte 0 1017.6 -0.2 63
2019-06-20 16:00:00 25.7 11 Norte 33 Norte 0 1017.6 -0.4 63
2019-06-20 15:00:00 25.5 9 Norte 36 Nordeste 0 1017.7 -0.6 60
2019-06-20 14:00:00 25.6 9 Norte 37 Norte 0 1017.8 -0.5 60
2019-06-20 13:00:00 25 14 Norte 34 Norte 0 1018 -0.3 64
2019-06-20 12:00:00 24.4 15 Norte 34 Norte 0 1018.3 0.5 65
2019-06-20 11:00:00 23.8 12 Norte 31 Noroeste 0 1018.3 0.9 67
2019-06-20 10:00:00 22.9 14 Norte 32 Norte 0 1018.3 1.3 76
2019-06-20 09:00:00 21.9 17 Norte 33 Norte 0 1017.8 1 79
2019-06-20 08:00:00 21.6 16 Norte 35 Norte 0 1017.4 0.2 82
2019-06-20 07:00:00 21.3 17 Norte 36 Norte 0 1017 -0.7 84
2019-06-20 06:00:00 21.6 14 Norte 29 Norte 0 1016.8 -1.2 83
2019-06-20 05:00:00 21.6 15 Norte 28 Norte 0 1017.2 -1.4 81
2019-06-20 04:00:00 21.5 11 Norte 26 Norte 0 1017.7 -1.2 81
2019-06-20 03:00:00 21.6 15 Norte 31 Norte 0 1018 -1.1 80
2019-06-20 02:00:00 21.7 8 Norte 23 Norte 0 1018.6 0 78
2019-06-20 01:00:00 21.6 12 Norte 22 Nordeste 0 1018.9 0.6 80
2019-06-20 00:00:00 21.9 6 Norte 26 Norte 0 1019.1 1.4 75
2019-06-19 23:00:00 22.3 7 Noroeste 21 Norte 0 1018.6 1.6 71
2019-06-19 22:00:00 22.8 13 Norte 26 Norte 0 1018.3 1.3 68
2019-06-19 21:00:00 23.2 14 Norte 28 Norte 0 1017.7 0.5 67
2019-06-19 20:00:00 24.4 10 Noroeste 28 Norte 0 1017 -0.3 68
2019-06-19 19:00:00 23.4 7 Sudeste 15 Sur 0 1017 -0.7 80
2019-06-19 18:00:00 23.4 9 Sur 18 Sudeste 0 1017.2 -0.7 81
2019-06-19 17:00:00 22.9 12 Sur 19 Sur 0 1017.3 -0.9 81
2019-06-19 16:00:00 23 13 Sur 22 Sur 0 1017.7 -0.8 81
2019-06-19 15:00:00 23.6 13 Sur 24 Sur 0 1017.9 -0.4 80
2019-06-19 14:00:00 23.9 10 Sur 30 Sudeste 0 1018.2 0.2 77
2019-06-19 13:00:00 22.5 14 Sur 24 Sur 0 1018.5 0.8 87
2019-06-19 12:00:00 22.8 12 Sur 22 Sur 0 1018.3 1 88
2019-06-19 11:00:00 22.7 7 Sur 23 Nordeste 0 1018 1 86
2019-06-19 10:00:00 24.4 4 Norte 13 Noroeste 0 1017.7 0.9 68
2019-06-19 09:00:00 22.5 9 Norte 20 Norte 0 1017.3 0.8 75
2019-06-19 08:00:00 21 5 Norte 12 Norte 0 1017 0.6 77
2019-06-19 07:00:00 20.3 5 Noroeste 10 Noroeste 0 1016.8 0.2 77
2019-06-19 06:00:00 20.6 6 Noroeste 10 Noroeste 0 1016.5 -0.1 77
2019-06-19 05:00:00 21 6 Noroeste 9 Noroeste 0 1016.4 -0.5 77
2019-06-19 04:00:00 21.2 4 Noroeste 13 Norte 0 1016.6 -0.8 79
2019-06-19 03:00:00 21.7 7 Norte 15 Norte 0 1016.6 -0.8 80
2019-06-19 02:00:00 21.6 6 Noroeste 14 Norte 0 1016.9 -0.4 80
2019-06-19 01:00:00 21.7 7 Noroeste 17 Norte 0 1017.4 0.3 79
2019-06-19 00:00:00 22.5 10 Norte 21 Norte 0 1017.4 0.7 76
2019-06-18 23:00:00 22.6 11 Norte 22 Norte 0 1017.3 0.8 80
2019-06-18 22:00:00 22.9 0 Calma 16 Norte 0 1017.1 0.6 81
2019-06-18 21:00:00 23.3 7 Norte 24 Este 0 1016.7 0 79
2019-06-18 20:00:00 23.1 12 Nordeste 23 Nordeste 0 1016.5 -0.3 85
2019-06-18 19:00:00 23.3 8 Nordeste 15 Nordeste 0 1016.5 -0.2 84
2019-06-18 18:00:00 24.2 2 Nordeste 10 Nordeste 0 1016.7 -0.1 82
2019-06-18 17:00:00 24.4 3 Este 10 Este 0 1016.8 -0.2 81
2019-06-18 16:00:00 24.3 4 Sudeste 15 Nordeste 0 1016.7 -0.9 80
2019-06-18 15:00:00 23 7 Sur 12 Sudeste 0 1016.8 -0.8 88
2019-06-18 14:00:00 23.1 5 Sudeste 13 Sur 0 1017 -0.3 90
2019-06-18 13:00:00 22.6 11 Sur 14 Sur 0 1017.6 0.9 93
2019-06-18 12:00:00 22.1 9 Sur 12 Sur 0 1017.6 1.1 94
2019-06-18 11:00:00 22.8 5 Sudeste 9 Sur 0 1017.3 1.4 90
2019-06-18 10:00:00 22.6 7 Sudeste 9 Sudeste 0 1016.7 1.2 89
2019-06-18 09:00:00 23.1 3 Sudeste 6 Sur 0 1016.5 1.4 87
2019-06-18 08:00:00 20.5 4 Norte 8 Noroeste 0 1015.9 0.8 80
2019-06-18 07:00:00 20.7 0 Calma 7 Norte 0 1015.5 0.2 81
2019-06-18 06:00:00 21 6 Noroeste 13 Noroeste 0 1015.1 -0.5 77
2019-06-18 05:00:00 20.5 9 Noroeste 15 Noroeste 0 1015.1 -1 82
2019-06-18 04:00:00 20.7 4 Norte 9 Noroeste 0 1015.3 -1.4 87
2019-06-18 03:00:00 20.9 0 Calma 3 Noroeste 0 1015.6 -1.3 90
2019-06-18 02:00:00 21.5 0 Calma 8 Sur 0 1016.1 -0.7 92
2019-06-18 01:00:00 21.9 0 Calma 5 Sur 0 1016.7 0 90
2019-06-18 00:00:00 22 2 Sur 6 Sur 0 1016.9 0.7 90
2019-06-17 23:00:00 22.2 0 Calma 7 Norte 0 1016.8 0.7 89
2019-06-17 22:00:00 22.3 4 Nordeste 22 Nordeste 0 1016.7 0.4 87
2019-06-17 21:00:00 22.5 6 Nordeste 18 Nordeste 0 1016.2 -0.3 86
2019-06-17 20:00:00 23.5 5 Norte 13 Norte 0 1016.1 -0.6 82
2019-06-17 19:00:00 23.7 4 Este 10 Este 0 1016.3 -0.6 83
2019-06-17 18:00:00 23.6 4 Este 11 Este 0 1016.5 -0.6 82
2019-06-17 17:00:00 23.7 4 Este 18 Este 0 1016.7 -0.9 80
2019-06-17 16:00:00 24.8 3 Este 19 Sudeste 0 1016.9 -0.9 82
2019-06-17 15:00:00 23.4 5 Este 20 Nordeste 0 1017.1 -0.8 86
2019-06-17 14:00:00 23.6 4 Este 16 Este 0 1017.6 -0.2 84
2019-06-17 13:00:00 23.6 4 Sudeste 13 Este 0 1017.8 0.1 80
2019-06-17 12:00:00 22.7 4 Sudeste 9 Sudeste 0 1017.9 0.3 79
2019-06-17 11:00:00 22.1 6 Sudeste 8 Sur 0 1017.8 0.5 74
2019-06-17 10:00:00 21.7 4 Sudeste 8 Sudeste 0 1017.7 0.5 74
2019-06-17 09:00:00 21.2 2 Nordeste 9 Nordeste 0 1017.6 0.4 71
2019-06-17 08:00:00 18.4 6 Noroeste 10 Noroeste 0 1017.3 -0.2 75
2019-06-17 07:00:00 18.4 6 Noroeste 10 Noroeste 0 1017.2 -0.7 74
2019-06-17 06:00:00 18.5 6 Norte 12 Noroeste 0 1017.2 -1.1 75
2019-06-17 05:00:00 18.6 6 Noroeste 11 Noroeste 0 1017.5 -1.3 76
2019-06-17 04:00:00 18.8 6 Noroeste 10 Noroeste 0 1017.9 -1.7 76
2019-06-17 03:00:00 19.4 5 Noroeste 11 Noroeste 0 1018.3 -1.4 77
2019-06-17 02:00:00 19.5 5 Noroeste 9 Noroeste 0 1018.8 -0.7 81
2019-06-17 01:00:00 20.1 2 Sudoeste 6 Sudoeste 0 1019.6 0.6 81
2019-06-17 00:00:00 20.4 0 Calma 5 Sudeste 0 1019.7 1.1 82
2019-06-16 23:00:00 20.5 0 Calma 10 Sudeste 0 1019.5 1.4 82
2019-06-16 22:00:00 20.8 6 Sur 18 Sudoeste 0 1019 0.8 80
2019-06-16 21:00:00 21 8 Sur 19 Sur 0 1018.6 0.3 78
2019-06-16 20:00:00 22.3 6 Sur 17 Sudoeste 0 1018.1 -0.6 75
2019-06-16 19:00:00 22.4 7 Nordeste 16 Nordeste 0 1018.2 -0.6 72
2019-06-16 18:00:00 23.4 5 Sudeste 14 Sudeste 0 1018.3 -0.9 72
2019-06-16 17:00:00 23.3 4 Sudeste 13 Este 0 1018.7 -0.7 69
2019-06-16 16:00:00 22.7 6 Este 14 Este 0 1018.8 -0.8 69
2019-06-16 15:00:00 22.1 7 Sudeste 14 Sudeste 0 1019.2 -0.3 71
2019-06-16 14:00:00 21.8 7 Sudeste 24 Sur 0 1019.4 -0.1 70
2019-06-16 13:00:00 20.9 14 Sur 21 Sudeste 0 1019.6 0.4 77
2019-06-16 12:00:00 20.9 9 Sur 17 Sur 0 1019.5 0.6 80
2019-06-16 11:00:00 22.3 4 Este 11 Este 0 1019.5 1 73
2019-06-16 10:00:00 21.3 5 Este 14 Nordeste 0 1019.2 1 76
2019-06-16 09:00:00 20.1 2 Norte 14 Noroeste 0 1018.9 1 76
2019-06-16 08:00:00 17.2 9 Noroeste 14 Noroeste 0 1018.5 0.8 80
2019-06-16 07:00:00 17.1 10 Noroeste 15 Noroeste 0 1018.2 0.4 80
2019-06-16 06:00:00 17.3 8 Noroeste 13 Noroeste 0 1017.9 -0.6 79
2019-06-16 05:00:00 17.7 7 Norte 14 Noroeste 0 1017.7 -1.3 78
2019-06-16 04:00:00 18 8 Noroeste 14 Noroeste 0 1017.8 -1.8 77
2019-06-16 03:00:00 18.1 6 Norte 11 Norte 0 1018.5 -1.2 80
2019-06-16 02:00:00 18.6 6 Noroeste 12 Noroeste 0 1019 -0.3 81
2019-06-16 01:00:00 18.8 6 Noroeste 11 Noroeste 0 1019.6 1.1 83
2019-06-16 00:00:00 19.4 4 Noroeste 6 Noroeste 0 1019.7 1.6 83
2019-06-15 23:00:00 20.1 2 Sudeste 6 Sudeste 0 1019.3 1.3 83
2019-06-15 22:00:00 20.2 3 Sudeste 7 Sudeste 0 1018.5 1 82
2019-06-15 21:00:00 20.5 3 Sudeste 9 Sudeste 0 1018.1 0.5 79
2019-06-15 20:00:00 20.9 6 Sur 11 Sur 0 1018 -0.4 78
2019-06-15 19:00:00 21.8 5 Nordeste 14 Este 0 1017.5 -0.9 75
2019-06-15 18:00:00 21.5 5 Norte 19 Nordeste 0 1017.6 -1.1 75
2019-06-15 17:00:00 21.7 5 Sur 11 Sudeste 0 1018.4 -0.6 74
2019-06-15 16:00:00 21.4 7 Sur 20 Sur 0 1018.4 -0.6 74
2019-06-15 15:00:00 21.2 13 Sur 23 Sur 0 1018.7 -0.7 74
2019-06-15 14:00:00 21.1 17 Sur 24 Sur 0 1019 -0.1 70
2019-06-15 13:00:00 21 15 Sur 20 Sur 0 1019 0.3 73
2019-06-15 12:00:00 21 10 Sur 15 Sur 0 1019.4 1.1 75
2019-06-15 11:00:00 21 9 Sur 13 Sur 0 1019.1 1.3 75
2019-06-15 10:00:00 21.6 5 Sudeste 9 Sudeste 0 1018.7 0.9 73
2019-06-15 09:00:00 20.6 4 Norte 14 Noroeste 0 1018.3 1 68
2019-06-15 08:00:00 18.2 7 Noroeste 14 Noroeste 0 1017.8 0.2 74
2019-06-15 07:00:00 17.9 10 Noroeste 15 Noroeste 0 1017.8 0 74
2019-06-15 06:00:00 18.3 11 Noroeste 16 Noroeste 0 1017.3 -0.9 74
2019-06-15 05:00:00 18.8 10 Noroeste 21 Oeste 0 1017.6 -1.1 74
2019-06-15 04:00:00 19 10 Noroeste 18 Noroeste 0 1017.8 -1.3 74
2019-06-15 03:00:00 19.3 9 Noroeste 16 Oeste 0 1018.2 -1.1 73
2019-06-15 02:00:00 19.6 8 Noroeste 21 Norte 0 1018.7 -0.4 75
2019-06-15 01:00:00 19.9 9 Noroeste 24 Noroeste 0 1019.1 0.4 74
2019-06-15 00:00:00 19.9 5 Noroeste 12 Noroeste 0 1019.3 1.1 74
2019-06-14 23:00:00 19.9 6 Noroeste 15 Oeste 0 1019.1 1.2 72
2019-06-14 22:00:00 20.5 8 Oeste 15 Noroeste 0 1018.7 0.9 71
2019-06-14 21:00:00 21 8 Norte 17 Norte 0 1018.2 0.3 71
2019-06-14 20:00:00 21.4 4 Sur 11 Sur 0 1017.9 -0.1 78
2019-06-14 19:00:00 20.9 9 Sur 13 Sur 0 1017.8 -0.1 77
2019-06-14 18:00:00 20.9 6 Sur 13 Sur 0 1017.9 -0.3 80
2019-06-14 17:00:00 20.7 11 Sur 16 Sur 0 1018 -0.5 80
2019-06-14 16:00:00 20.9 12 Sur 17 Sur 0 1017.9 -0.7 75
2019-06-14 15:00:00 20.8 15 Sur 21 Sur 0 1018.2 -0.6 76
2019-06-14 14:00:00 21.3 9 Sur 18 Sur 0 1018.5 0.1 71
2019-06-14 13:00:00 21.6 8 Sur 21 Sudeste 0 1018.6 0.6 70
2019-06-14 12:00:00 20.9 12 Sur 24 Sur 0 1018.8 1.1 73
2019-06-14 11:00:00 23.2 4 Noroeste 18 Oeste 0 1018.4 1.5 63
2019-06-14 10:00:00 21.3 11 Noroeste 30 Norte 0 1018 1.3 66
2019-06-14 09:00:00 20.8 6 Norte 22 Nordeste 0 1017.7 1.2 70
2019-06-14 08:00:00 19.7 10 Norte 26 Noroeste 0 1016.9 0.8 79
2019-06-14 07:00:00 19.7 7 Norte 20 Noroeste 0 1016.7 0.7 77
2019-06-14 06:00:00 19.7 6 Noroeste 18 Norte 0 1016.5 0.1 74
2019-06-14 05:00:00 19.4 6 Noroeste 9 Noroeste 0 1016.1 -0.9 73
2019-06-14 04:00:00 19.5 5 Noroeste 19 Oeste 0 1016 -1.4 75
2019-06-14 03:00:00 19.6 8 Noroeste 17 Norte 0 1016.4 -1.1 77
2019-06-14 02:00:00 19.8 8 Noroeste 22 Oeste 0 1017 -0.3 74
2019-06-14 01:00:00 20 8 Noroeste 21 Norte 0 1017.4 0.4 80
2019-06-14 00:00:00 20.2 9 Norte 26 Norte 0 1017.5 1 80
2019-06-13 23:00:00 20.3 10 Noroeste 27 Oeste 0 1017.3 1.6 77
2019-06-13 22:00:00 20.6 8 Noroeste 26 Norte 0 1017 1.5 74
2019-06-13 21:00:00 20.8 11 Noroeste 28 Noroeste 0 1016.5 1.2 71
2019-06-13 20:00:00 21.4 10 Noroeste 32 Noroeste 0 1015.7 0.3 68
2019-06-13 19:00:00 22.1 17 Noroeste 36 Noroeste 0 1015.5 -0.1 67
2019-06-13 18:00:00 23.1 9 Noroeste 35 Noroeste 0 1015.3 -0.6 60
2019-06-13 17:00:00 22.9 14 Noroeste 33 Noroeste 0 1015.4 -0.7 55
2019-06-13 16:00:00 24 13 Norte 33 Nordeste 0 1015.6 -0.7 55
2019-06-13 15:00:00 23.5 13 Norte 33 Noroeste 0 1015.9 -0.4 53
2019-06-13 14:00:00 23.3 13 Nordeste 34 Nordeste 0 1016.1 0.2 61
2019-06-13 13:00:00 22.8 11 Norte 30 Noroeste 0 1016.3 0.9 65
2019-06-13 12:00:00 21.9 13 Norte 36 Noroeste 0 1016.3 1.8 67
2019-06-13 11:00:00 22.2 12 Noroeste 35 Noroeste 0 1015.9 1.7 66
2019-06-13 10:00:00 20.9 11 Norte 40 Noroeste 0 1015.4 1.6 74
2019-06-13 09:00:00 20.7 10 Noroeste 32 Norte 0 1014.5 0.8 72
2019-06-13 08:00:00 19.9 9 Norte 35 Oeste 0 1014.2 0.6 79
2019-06-13 07:00:00 19.9 13 Noroeste 29 Noroeste 0 1013.8 0 74
2019-06-13 06:00:00 19.7 11 Norte 35 Nordeste 0 1013.7 -0.2 76
2019-06-13 05:00:00 19.5 11 Noroeste 30 Noroeste 0 1013.6 -0.6 78
2019-06-13 04:00:00 19.6 13 Norte 36 Noroeste 0 1013.8 -1.1 78
2019-06-13 03:00:00 19.7 15 Norte 37 Nordeste 0 1013.9 -1 81
2019-06-13 02:00:00 19.7 17 Norte 40 Noroeste 0 1014.2 -0.4 80
2019-06-13 01:00:00 19.9 14 Norte 41 Nordeste 0 1014.9 0.8 80
2019-06-13 00:00:00 20 17 Norte 36 Noroeste 0 1014.9 1.3 80
2019-06-12 23:00:00 20.2 13 Norte 32 Norte 0 1014.6 1.7 81
2019-06-12 22:00:00 20.4 12 Norte 32 Norte 0 1014.1 1.5 84
2019-06-12 21:00:00 20.7 11 Norte 34 Noroeste 0 1013.6 0.9 82
2019-06-12 20:00:00 20.9 13 Norte 44 Norte 0 1012.9 -0.5 78
2019-06-12 19:00:00 21.9 19 Noroeste 43 Noroeste 0 1012.6 -1 72
2019-06-12 18:00:00 23.8 10 Noroeste 40 Norte 0 1012.7 -1.6 63
2019-06-12 17:00:00 23.9 10 Noroeste 35 Oeste 0 1013.4 -1.3 68
2019-06-12 16:00:00 22.9 14 Noroeste 37 Noroeste 0 1013.6 -1.1 71
2019-06-12 15:00:00 22.1 10 Norte 40 Noroeste 0 1014.3 -0.4 77
2019-06-12 14:00:00 21.4 17 Noroeste 42 Noroeste 0 1014.7 0.8 80
2019-06-12 13:00:00 21.7 19 Noroeste 41 Noroeste 0 1014.7 0.8 80
2019-06-12 12:00:00 21.1 12 Noroeste 37 Noroeste 0 1014.7 1 87
2019-06-12 11:00:00 20.4 23 Norte 45 Norte 0 1013.9 0.7 89
2019-06-12 10:00:00 20.8 17 Norte 38 Norte 0 1013.9 0.7 87
2019-06-12 09:00:00 20.4 22 Noroeste 47 Norte 0 1013.7 1.2 87
2019-06-12 08:00:00 19.5 22 Noroeste 50 Noroeste 0 1013.2 0.3 93
2019-06-12 07:00:00 20 18 Norte 44 Norte 0 1013.2 0.6 89
2019-06-12 06:00:00 20 20 Norte 46 Norte 0 1012.5 -1 87
2019-06-12 05:00:00 20.4 15 Noroeste 52 Noroeste 0 1012.9 -1.4 86
2019-06-12 04:00:00 20.2 19 Norte 50 Norte 0 1012.6 -2.5 87
2019-06-12 03:00:00 20.4 17 Norte 49 Noroeste 0 1013.5 -1.7 86
2019-06-12 02:00:00 20.8 17 Norte 50 Norte 0 1014.3 -0.2 83
2019-06-12 01:00:00 20.6 15 Norte 44 Oeste 0 1015.1 0.4 84
2019-06-12 00:00:00 20.8 19 Norte 49 Noroeste 0 1015.2 0.6 84
2019-06-11 23:00:00 20.9 21 Norte 50 Norte 0 1014.5 -0.1 82
2019-06-11 22:00:00 20.7 22 Norte 54 Nordeste 0 1014.7 0.2 84
2019-06-11 21:00:00 20.8 25 Norte 46 Noroeste 0 1014.6 0.1 85
2019-06-11 20:00:00 21.2 14 Noroeste 57 Oeste 0 1014.6 -0.3 83
2019-06-11 19:00:00 22.1 18 Noroeste 46 Noroeste 0 1014.5 -0.8 80
2019-06-11 18:00:00 21.8 19 Noroeste 49 Noroeste 0 1014.5 -1.3 84
2019-06-11 17:00:00 22.2 16 Noroeste 47 Noroeste 0 1014.9 -1.4 83
2019-06-11 16:00:00 23.1 17 Norte 48 Noroeste 0 1015.3 -1 78
2019-06-11 15:00:00 23.1 16 Norte 53 Norte 0 1015.8 -0.7 78
2019-06-11 14:00:00 23 21 Noroeste 57 Norte 0 1016.3 0.1 73
2019-06-11 13:00:00 23.1 21 Noroeste 55 Noroeste 0 1016.3 0 75
2019-06-11 12:00:00 23.4 19 Noroeste 51 Norte 0 1016.5 0.2 71
2019-06-11 11:00:00 22.6 19 Norte 51 Noroeste 0 1016.2 -0.1 71
2019-06-11 10:00:00 21.6 22 Noroeste 55 Noroeste 0 1016.3 0.2 75
2019-06-11 09:00:00 21 22 Noroeste 50 Norte 0 1016.3 0.4 74
2019-06-11 08:00:00 19.9 17 Norte 45 Norte 0 1016.3 0.1 80
2019-06-11 07:00:00 19.7 23 Norte 51 Norte 0 1016.1 -0.7 81
2019-06-11 06:00:00 19.7 19 Norte 49 Norte 0 1015.9 -1.7 80
2019-06-11 05:00:00 19.6 23 Norte 53 Norte 0 1016.2 -2 80
2019-06-11 04:00:00 19.6 22 Noroeste 59 Noroeste 0 1016.8 -1.6 81
2019-06-11 03:00:00 19.7 20 Norte 49 Norte 0 1017.6 -1.2 80
2019-06-11 02:00:00 20 18 Norte 50 Norte 0 1018.2 -0.6 81
2019-06-11 01:00:00 19.9 19 Norte 54 Noroeste 0 1018.4 0.2 80
2019-06-11 00:00:00 20.1 22 Noroeste 57 Noroeste 0 1018.8 1 83
2019-06-10 23:00:00 20.6 17 Norte 54 Noroeste 0 1018.8 1.1 83
2019-06-10 22:00:00 20.4 23 Norte 56 Norte 0 1018.2 0.5 82
2019-06-10 21:00:00 20.7 21 Norte 51 Norte 0 1017.8 -0.1 81
2019-06-10 20:00:00 20.9 24 Noroeste 55 Noroeste 0 1017.7 -0.7 79
2019-06-10 19:00:00 21.9 17 Norte 45 Norte 0 1017.7 -0.8 75
2019-06-10 18:00:00 22.3 16 Norte 45 Noroeste 0 1017.9 -1.3 73
2019-06-10 17:00:00 21.9 17 Noroeste 53 Noroeste 0 1018.4 -1.3 76
2019-06-10 16:00:00 22.6 18 Noroeste 48 Noroeste 0 1018.5 -1.6 71
2019-06-10 15:00:00 23 20 Noroeste 48 Noroeste 0 1019.2 -1.2 63
2019-06-10 14:00:00 23.9 17 Noroeste 45 Norte 0 1019.7 -0.4 62
2019-06-10 13:00:00 22.7 19 Noroeste 45 Norte 0 1020.1 -0.2 65
2019-06-10 12:00:00 22.1 19 Noroeste 53 Noroeste 0 1020.4 0.2 71
2019-06-10 11:00:00 21.5 20 Noroeste 46 Norte 0 1020.1 0 72
2019-06-10 10:00:00 20.9 19 Norte 49 Norte 0 1020.3 0.7 74
2019-06-10 09:00:00 20.3 19 Noroeste 46 Norte 0 1020.2 0.8 75
2019-06-10 08:00:00 19.8 19 Norte 47 Noroeste 0 1020.1 0.9 76
2019-06-10 07:00:00 19.6 21 Noroeste 50 Noroeste 0 1019.6 -0.4 77
2019-06-10 06:00:00 19.6 19 Norte 44 Norte 0 1019.4 -0.9 76
2019-06-10 05:00:00 19.8 21 Norte 46 Noroeste 0 1019.2 -1.5 79
2019-06-10 04:00:00 19.6 18 Norte 54 Noroeste 0 1020 -1.1 77
2019-06-10 03:00:00 19.6 15 Noroeste 46 Norte 0 1020.3 -0.6 77
2019-06-10 02:00:00 19.7 16 Noroeste 51 Noroeste 0 1020.7 -0.2 77
2019-06-10 01:00:00 19.8 16 Noroeste 46 Norte 0 1021.1 0.7 76
2019-06-10 00:00:00 20 18 Noroeste 45 Noroeste 0 1020.9 0.5 76
2019-06-09 23:00:00 20 18 Noroeste 51 Noroeste 0 1020.9 1.1 76
2019-06-09 22:00:00 20.2 17 Norte 46 Norte 0 1020.4 0.6 77
2019-06-09 21:00:00 20.2 18 Norte 54 Norte 0 1020.4 0.5 76
2019-06-09 20:00:00 20.7 18 Noroeste 45 Noroeste 0 1019.8 -0.6 74
2019-06-09 19:00:00 21.7 18 Noroeste 52 Nordeste 0 1019.8 -0.8 70
2019-06-09 18:00:00 21.9 21 Noroeste 51 Noroeste 0 1019.9 -0.8 72
2019-06-09 17:00:00 21.5 20 Noroeste 46 Norte 0 1020.4 -0.7 73
2019-06-09 16:00:00 23 15 Noroeste 45 Oeste 0 1020.6 -1.2 65
2019-06-09 15:00:00 22.9 16 Noroeste 53 Oeste 0 1020.7 -0.9 62
2019-06-09 14:00:00 22.7 16 Noroeste 53 Noroeste 0 1021.1 -0.2 68
2019-06-09 13:00:00 21.8 14 Norte 39 Norte 0 1021.8 0.9 64
2019-06-09 12:00:00 22.7 15 Noroeste 44 Norte 0 1021.6 0.5 62
2019-06-09 11:00:00 21.7 15 Norte 45 Nordeste 0 1021.3 0.5 64
2019-06-09 10:00:00 20.5 16 Norte 43 Nordeste 0 1020.9 0.8 71
2019-06-09 09:00:00 20.2 14 Norte 52 Norte 0 1021.1 1.2 75
2019-06-09 08:00:00 19.7 9 Norte 34 Nordeste 0 1020.8 0.6 73
2019-06-09 07:00:00 19.5 12 Norte 39 Noroeste 0 1020.1 -0.1 71
2019-06-09 06:00:00 19.7 16 Norte 40 Noroeste 0 1019.9 -0.6 68
2019-06-09 05:00:00 19.4 15 Noroeste 39 Norte 0 1020.2 -0.4 77
2019-06-09 04:00:00 19.6 15 Norte 35 Nordeste 0 1020.2 -0.9 77
2019-06-09 03:00:00 19.7 17 Norte 43 Norte 0 1020.5 -0.6 77
2019-06-09 02:00:00 19.7 18 Norte 43 Nordeste 0 1020.6 -0.2 78
2019-06-09 01:00:00 19.8 18 Norte 44 Norte 0 1021.1 0.8 77
2019-06-09 00:00:00 20 16 Norte 49 Norte 0 1021.1 1.3 76
2019-06-08 23:00:00 20 19 Norte 40 Norte 0 1020.8 1.3 76
2019-06-08 22:00:00 20.2 17 Norte 49 Noroeste 0 1020.3 0.9 77
2019-06-08 21:00:00 20.4 17 Norte 42 Noroeste 0 1019.8 0.4 77
2019-06-08 20:00:00 20.6 18 Noroeste 46 Oeste 0 1019.5 -0.3 75
2019-06-08 19:00:00 20.8 16 Noroeste 39 Norte 0 1019.4 -0.4 73
2019-06-08 18:00:00 22.3 17 Noroeste 39 Noroeste 0 1019.4 -0.5 70
2019-06-08 17:00:00 22.2 13 Norte 44 Oeste 0 1019.8 0.1 72
2019-06-08 16:00:00 22.3 17 Noroeste 45 Noroeste 0 1019.8 0 68
2019-06-08 15:00:00 22.5 16 Noroeste 42 Norte 0 1019.9 0 68
2019-06-08 14:00:00 23.3 13 Norte 39 Noroeste 0 1019.7 0.2 70
2019-06-08 13:00:00 23.1 11 Norte 41 Noroeste 0 1019.8 0.4 71
2019-06-08 12:00:00 23.2 12 Noroeste 32 Noroeste 0 1019.9 1 74
2019-06-08 11:00:00 22.1 10 Oeste 40 Norte 0 1019.5 1 74
2019-06-08 10:00:00 20.9 13 Norte 35 Noroeste 0 1019.4 1.3 89
2019-06-08 09:00:00 21.3 12 Noroeste 30 Noroeste 0 1018.9 1.1 82
2019-06-08 08:00:00 21.5 10 Norte 25 Noroeste 0 1018.5 0.8 80
2019-06-08 07:00:00 21.2 7 Norte 18 Norte 0 1018.1 0.7 83
2019-06-08 06:00:00 20.8 6 Norte 31 Nordeste 0 1017.8 0.1 89
2019-06-08 05:00:00 20.6 13 Norte 36 Noroeste 0 1017.7 -0.1 90
2019-06-08 04:00:00 20.9 14 Norte 39 Nordeste 0 1017.4 -0.6 84
2019-06-08 03:00:00 21.2 14 Norte 30 Norte 0 1017.7 -0.9 83
2019-06-08 02:00:00 21.4 13 Norte 27 Norte 0 1017.8 -0.3 79
2019-06-08 01:00:00 21.3 12 Noroeste 36 Norte 0 1018 0.1 79
2019-06-08 00:00:00 21.3 12 Noroeste 32 Noroeste 0 1018.6 1.3 83
2019-06-07 23:00:00 21.5 17 Norte 36 Norte 0 1018.1 0.9 81
2019-06-07 22:00:00 21.4 13 Norte 34 Noroeste 0 1017.9 0.9 80
2019-06-07 21:00:00 21.5 17 Norte 40 Noroeste 0 1017.3 0.2 77
2019-06-07 20:00:00 21.9 14 Noroeste 40 Norte 0 1017.2 -0.3 74
2019-06-07 19:00:00 22.5 17 Norte 34 Norte 0 1017 -0.2 71
2019-06-07 18:00:00 23.1 7 Este 23 Sur 0 1017.1 -0.7 74
2019-06-07 17:00:00 22.5 8 Sur 36 Nordeste 0 1017.5 -0.5 73
2019-06-07 16:00:00 24 12 Noroeste 35 Oeste 0 1017.2 -0.8 63
2019-06-07 15:00:00 23.1 18 Noroeste 35 Nordeste 0 1017.8 -0.2 66
2019-06-07 14:00:00 23.5 9 Norte 30 Noroeste 0 1018 0.4 65
2019-06-07 13:00:00 22.2 12 Noroeste 34 Este 0 1018 0.8 68
2019-06-07 12:00:00 22 8 Norte 31 Nordeste 0 1018 1.4 72
2019-06-07 11:00:00 22.1 15 Norte 39 Norte 0 1017.6 1.1 71
2019-06-07 10:00:00 20.5 13 Norte 32 Norte 0 1017.2 1.1 78
2019-06-07 09:00:00 20.5 14 Norte 32 Noroeste 0 1016.6 0.7 75
2019-06-07 08:00:00 19.7 12 Norte 35 Norte 0 1016.5 0.7 80
2019-06-07 07:00:00 19.4 18 Norte 37 Norte 0 1016.1 0.2 81
2019-06-07 06:00:00 19.4 14 Norte 40 Nordeste 0 1015.9 -0.1 79
2019-06-07 05:00:00 19.7 15 Noroeste 34 Noroeste 0 1015.8 -1.3 76
2019-06-07 04:00:00 19.7 15 Noroeste 34 Noroeste 0 1015.9 -1.4 74
2019-06-07 03:00:00 19.6 15 Norte 42 Norte 0 1016 -1.2 77
2019-06-07 02:00:00 19.6 16 Noroeste 41 Oeste 0 1017.1 0.1 75
2019-06-07 01:00:00 19.7 16 Noroeste 46 Norte 0 1017.3 0.7 74
2019-06-07 00:00:00 19.8 22 Norte 46 Noroeste 0 1017.2 0.8 73
2019-06-06 23:00:00 19.9 17 Norte 43 Norte 0 1017 0.8 73
2019-06-06 22:00:00 20 17 Norte 40 Norte 0 1016.6 0.8 72
2019-06-06 21:00:00 20.2 14 Norte 45 Nordeste 0 1016.4 0.2 70
2019-06-06 20:00:00 20.9 12 Norte 44 Norte 0 1016.2 0 68
2019-06-06 19:00:00 21.6 14 Norte 46 Noroeste 0 1015.8 -0.7 69
2019-06-06 18:00:00 22.3 12 Norte 38 Nordeste 0 1016.2 -0.6 68
2019-06-06 17:00:00 22.2 11 Norte 32 Norte 0 1016.2 -0.9 69
2019-06-06 16:00:00 22.7 12 Norte 40 Norte 0 1016.5 -0.7 69
2019-06-06 15:00:00 21.6 11 Noroeste 36 Noroeste 0 1016.8 0 71
2019-06-06 14:00:00 21.3 14 Noroeste 38 Noroeste 0 1017.1 0.4 71
2019-06-06 13:00:00 22.3 13 Norte 44 Norte 0 1017.2 0.4 68
2019-06-06 12:00:00 21.9 12 Norte 40 Norte 0 1016.8 0.4 68
2019-06-06 11:00:00 20.5 10 Norte 31 Noroeste 0 1016.7 0.7 74
2019-06-06 10:00:00 20.5 10 Norte 37 Oeste 0 1016.8 1 74
2019-06-06 09:00:00 20.1 11 Norte 33 Noroeste 0 1016.4 0.9 74
2019-06-06 08:00:00 19.7 14 Norte 37 Noroeste 0 1016 0.3 77
2019-06-06 07:00:00 19.5 15 Norte 44 Norte 0 1015.8 0.1 78
2019-06-06 06:00:00 19.7 12 Norte 37 Noroeste 0 1015.5 -0.6 80
2019-06-06 05:00:00 19.9 13 Norte 35 Noroeste 0 1015.7 -0.9 82
2019-06-06 04:00:00 19.9 12 Norte 34 Noroeste 0 1015.7 -1.3 84
2019-06-06 03:00:00 20.1 14 Norte 37 Oeste 0 1016.1 -1 81
2019-06-06 02:00:00 20.1 21 Noroeste 44 Norte 0 1016.6 -0.1 84
2019-06-06 01:00:00 20.3 19 Norte 45 Nordeste 0 1017 0.5 83
2019-06-06 00:00:00 20.4 16 Norte 48 Noroeste 0 1017.1 0.6 82
2019-06-05 23:00:00 20.6 20 Noroeste 47 Norte 0 1016.7 0.3 83
2019-06-05 22:00:00 20.7 18 Norte 42 Noroeste 0 1016.5 0.3 82
2019-06-05 21:00:00 20.8 18 Noroeste 37 Norte 0 1016.5 -0.1 81
2019-06-05 20:00:00 21.1 18 Noroeste 46 Noroeste 0 1016.4 -0.2 79
2019-06-05 19:00:00 21.6 14 Noroeste 35 Noroeste 0 1016.2 -0.7 78
2019-06-05 18:00:00 22.8 14 Noroeste 37 Nordeste 0 1016.6 -0.5 74
2019-06-05 17:00:00 22.5 14 Norte 40 Noroeste 0 1016.6 -0.9 76
2019-06-05 16:00:00 24 13 Noroeste 41 Noroeste 0 1016.9 -0.7 69
2019-06-05 15:00:00 24.4 16 Noroeste 46 Oeste 0 1017.1 -0.6 66
2019-06-05 14:00:00 23.5 13 Noroeste 44 Noroeste 0 1017.5 0.4 74
2019-06-05 13:00:00 23.5 16 Norte 36 Noroeste 0 1017.6 0.9 72
2019-06-05 12:00:00 23.2 14 Noroeste 44 Oeste 0 1017.7 1.2 77
2019-06-05 11:00:00 22.5 19 Norte 48 Norte 0 1017.1 0.7 76
2019-06-05 10:00:00 23.7 14 Noroeste 41 Norte 0 1016.7 0.8 69
2019-06-05 09:00:00 22.5 16 Norte 43 Noroeste 0 1016.5 0.8 74
2019-06-05 08:00:00 22.1 18 Noroeste 43 Noroeste 0 1016.4 0.5 75
2019-06-05 07:00:00 21.3 19 Noroeste 49 Noroeste 0 1015.9 -0.5 79
2019-06-05 06:00:00 21.3 17 Noroeste 44 Noroeste 0 1015.7 -1 81
2019-06-05 05:00:00 21.1 18 Noroeste 44 Nordeste 0 1015.9 -0.9 84
2019-06-05 04:00:00 21.6 19 Noroeste 47 Oeste 0 1016.4 -1.2 83
2019-06-05 03:00:00 21.4 21 Noroeste 53 Noroeste 0 1016.7 -1 81
2019-06-05 02:00:00 21.5 19 Norte 45 Norte 0 1016.8 -0.4 83
2019-06-05 01:00:00 21.4 19 Norte 49 Noroeste 0 1017.6 0.8 81
2019-06-05 00:00:00 21.6 20 Noroeste 51 Norte 0 1017.7 1.1 80
2019-06-04 23:00:00 21.4 26 Norte 53 Norte 0 1017.2 1.2 80
2019-06-04 22:00:00 22 19 Norte 39 Noroeste 0 1016.8 0.8 74
2019-06-04 21:00:00 22.7 18 Noroeste 41 Norte 0 1016.6 0.6 69
2019-06-04 20:00:00 24.9 15 Noroeste 40 Noroeste 0 1016 -0.5 51
2019-06-04 19:00:00 26.9 17 Noroeste 45 Norte 0 1016 -0.4 39
2019-06-04 18:00:00 28.3 12 Noroeste 43 Norte 0 1016 -0.6 37
2019-06-04 17:00:00 27.8 14 Norte 38 Norte 0 1016.5 -0.4 37
2019-06-04 16:00:00 28.2 10 Noroeste 39 Norte 0 1016.4 -0.7 41
2019-06-04 15:00:00 27.4 20 Norte 43 Oeste 0 1016.6 -0.3 39
2019-06-04 14:00:00 27.8 20 Noroeste 42 Noroeste 0 1016.9 0.8 36
2019-06-04 13:00:00 27.6 17 Norte 43 Noroeste 0 1017.1 1.2 37
2019-06-04 12:00:00 27.3 21 Noroeste 45 Oeste 0 1016.9 1.7 35
2019-06-04 11:00:00 27.5 19 Noroeste 47 Noroeste 0 1016.1 1.8 34
2019-06-04 10:00:00 27.9 17 Noroeste 37 Noroeste 0 1015.9 1.9 33
2019-06-04 09:00:00 27.4 14 Noroeste 37 Noroeste 0 1015.2 2 33
2019-06-04 08:00:00 26.6 14 Noroeste 44 Noroeste 0 1014.3 0.8 33
2019-06-04 07:00:00 26 14 Noroeste 37 Oeste 0 1014 0.2 33
2019-06-04 06:00:00 26.6 13 Noroeste 44 Noroeste 0 1013.2 -0.9 32
2019-06-04 05:00:00 26.9 13 Noroeste 36 Norte 0 1013.5 -1.3 32
2019-06-04 04:00:00 27.1 16 Noroeste 39 Noroeste 0 1013.8 -0.8 31
2019-06-04 03:00:00 27.8 14 Noroeste 33 Norte 0 1014.1 -1.5 31
2019-06-04 02:00:00 27.8 11 Noroeste 39 Norte 0 1014.8 -0.7 30
2019-06-04 01:00:00 28.3 16 Norte 44 Norte 0 1014.6 0.2 32
2019-06-04 00:00:00 22.5 4 Este 25 Nordeste 0 1015.6 1.5 82
2019-06-03 23:00:00 22 7 Este 34 Este 0 1015.5 1.5 86
2019-06-03 22:00:00 22 8 Este 26 Sur 0 1014.4 1 87
2019-06-03 21:00:00 22.7 7 Este 33 Nordeste 0 1014.1 0.2 85
2019-06-03 20:00:00 25.5 4 Este 33 Sur 0 1014 0.2 61
2019-06-03 19:00:00 23.9 9 Este 26 Sudeste 0 1013.4 -0.7 79
2019-06-03 18:00:00 24.5 9 Sudeste 26 Sudeste 0 1013.9 -0.2 79
2019-06-03 17:00:00 23.9 10 Sudeste 24 Sudeste 0 1013.8 -0.3 84
2019-06-03 16:00:00 23.5 16 Sudeste 22 Sudeste 0 1014.1 0.3 86
2019-06-03 15:00:00 24.6 6 Sudeste 34 Sudeste 0 1014.1 0.3 78
2019-06-03 14:00:00 27.3 6 Sudeste 39 Norte 0 1014.1 0.7 42
2019-06-03 13:00:00 33.4 13 Noroeste 45 Noroeste 0 1013.8 0.7 26
2019-06-03 12:00:00 31.9 15 Noroeste 48 Norte 0 1013.8 0.9 28
2019-06-03 11:00:00 31.5 13 Noroeste 44 Oeste 0 1013.4 0.7 30
2019-06-03 10:00:00 29.6 14 Noroeste 29 Noroeste 0 1013.1 0.4 36
2019-06-03 09:00:00 22.7 3 Este 12 Sur 0 1012.9 0.4 79
2019-06-03 08:00:00 21.1 5 Norte 12 Norte 0 1012.7 0 80
2019-06-03 07:00:00 20.5 0 Calma 10 Sur 0 1012.7 -0.3 94
2019-06-03 06:00:00 21.2 4 Sudeste 16 Este 0 1012.5 -0.5 91
2019-06-03 05:00:00 21.2 5 Este 19 Sur 0 1012.7 -1.2 87
2019-06-03 04:00:00 20.7 3 Este 16 Nordeste 0 1013 -1.2 93
2019-06-03 03:00:00 20.6 0 Calma 13 Sur 0 1013 -1.5 95
2019-06-03 02:00:00 20.5 8 Sur 13 Sur 0 1013.9 0.2 96
2019-06-03 01:00:00 20.7 0 Calma 4 Sur 0 1014.2 1 96
2019-06-03 00:00:00 20.9 0 Calma 10 Sudeste 0 1014.5 2.1 96
2019-06-02 23:00:00 20.9 7 Sudeste 12 Sudeste 0 1013.7 1.9 96
2019-06-02 22:00:00 21.2 5 Sur 18 Sur 0 1013.2 1.6 94
2019-06-02 21:00:00 21.4 4 Sudeste 23 Nordeste 0 1012.4 0.9 92
2019-06-02 20:00:00 23 7 Nordeste 23 Nordeste 0 1011.8 0.3 81
2019-06-02 19:00:00 21.8 15 Sur 24 Sudeste 0 1011.6 -0.3 94
2019-06-02 18:00:00 22.1 8 Sudeste 24 Sur 0 1011.5 -0.7 93
2019-06-02 17:00:00 21.9 18 Sudeste 22 Sur 0 1011.5 -0.8 92
2019-06-02 16:00:00 22.5 13 Sur 18 Sur 0 1011.9 -0.7 84
2019-06-02 15:00:00 22.3 13 Sur 26 Este 0 1012.2 -0.5 85
2019-06-02 14:00:00 24.4 12 Nordeste 27 Nordeste 0 1012.3 -0.6 77
2019-06-02 13:00:00 23.6 11 Nordeste 23 Nordeste 0 1012.6 0.2 79
2019-06-02 12:00:00 21.7 10 Sur 18 Sur 0 1012.7 0.8 88
2019-06-02 11:00:00 20.8 10 Sur 15 Sur 0 1012.9 1.7 92
2019-06-02 10:00:00 20.8 10 Sur 14 Sudeste 0 1012.4 1.3 90
2019-06-02 09:00:00 20.9 0 Calma 12 Norte 0 1011.9 0.5 90
2019-06-02 08:00:00 18.5 6 Noroeste 12 Norte 0 1011.2 -0.1 92
2019-06-02 07:00:00 19.1 0 Calma 9 Noroeste 0 1011.1 -0.5 92
2019-06-02 06:00:00 18.9 5 Noroeste 10 Noroeste 0 1011.4 -0.7 92
2019-06-02 05:00:00 19.5 2 Noroeste 9 Sudoeste 0 1011.3 -1 92
2019-06-02 04:00:00 19.8 0 Calma 6 Sur 0 1011.6 -1 92
2019-06-02 03:00:00 20.1 3 Sur 13 Sur 0 1012.1 -0.4 93
2019-06-02 02:00:00 20.4 0 Calma 10 Sur 0 1012.3 0.5 92
2019-06-02 01:00:00 20.3 0 Calma 12 Sudoeste 0 1012.6 1.3 92
2019-06-02 00:00:00 20.3 6 Sudeste 17 Sur 0 1012.5 1.7 93
2019-06-01 23:00:00 20.2 10 Sur 15 Sudeste 0 1011.8 1.3 92
2019-06-01 22:00:00 20.5 6 Sur 16 Sur 0 1011.3 0.9 91
2019-06-01 21:00:00 20.6 9 Sur 15 Sur 0 1010.8 0 90
2019-06-01 20:00:00 21.6 4 Sudeste 16 Sur 0 1010.5 -0.4 88
2019-06-01 19:00:00 21.6 10 Sur 15 Sudeste 0 1010.4 -0.8 86
2019-06-01 18:00:00 22.4 8 Sudeste 17 Sudeste 0 1010.8 -1.2 83
2019-06-01 17:00:00 23.9 9 Nordeste 30 Nordeste 0 1010.9 -1.9 78
2019-06-01 16:00:00 22.7 18 Nordeste 37 Nordeste 0 1011.2 -1.7 84
2019-06-01 15:00:00 22.5 11 Norte 25 Nordeste 0 1012 -1.3 81
2019-06-01 14:00:00 22.9 5 Este 18 Sudeste 0 1012.8 0.8 78
2019-06-01 13:00:00 22.5 4 Este 32 Nordeste 0 1012.9 1.2 78
2019-06-01 12:00:00 22.4 14 Nordeste 39 Norte 0 1013.3 2.3 78
2019-06-01 11:00:00 21.8 17 Norte 33 Norte 0 1012 1.3 79
2019-06-01 10:00:00 20.8 13 Sur 21 Sur 0 1011.7 1 85
2019-06-01 09:00:00 20.9 0 Calma 8 Norte 0 1011 -0.2 86
2019-06-01 08:00:00 18.4 5 Noroeste 11 Noroeste 0 1010.7 -0.6 89
2019-06-01 07:00:00 18.6 4 Noroeste 9 Noroeste 0 1010.7 -1 89
2019-06-01 06:00:00 19.7 0 Calma 9 Norte 0 1011.2 -0.4 92
2019-06-01 05:00:00 19.7 4 Oeste 36 Nordeste 0 1011.3 -0.5 88
2019-06-01 04:00:00 19.9 12 Norte 27 Norte 0 1011.7 -0.9 85
2019-06-01 03:00:00 20.1 11 Norte 28 Norte 0 1011.6 -0.8 85
2019-06-01 02:00:00 20.3 6 Norte 22 Nordeste 0 1011.8 -0.3 84
2019-06-01 01:00:00 20.2 5 Nordeste 18 Norte 0 1012.6 1.1 87
2019-06-01 00:00:00 20.3 5 Sur 11 Este 0 1012.4 1.4 89
2019-05-31 23:00:00 19.9 0 Calma 7 Este 0 1012.1 1.2 92
2019-05-31 22:00:00 20.3 7 Sur 10 Sur 0 1011.5 0.5 91
2019-05-31 21:00:00 20.6 6 Sur 17 Sur 0 1011 -0.4 89
2019-05-31 20:00:00 21 12 Sur 21 Sur 0 1010.9 -0.7 87
2019-05-31 19:00:00 21 12 Sur 22 Sur 0 1011 -0.9 90
2019-05-31 18:00:00 21.2 15 Sur 29 Sur 0 1011.4 -1.1 88
2019-05-31 17:00:00 21.6 16 Sur 28 Sur 0 1011.6 -1.2 84
2019-05-31 16:00:00 21.5 10 Sur 25 Sur 0 1011.9 -1.3 81
2019-05-31 15:00:00 20.7 14 Sur 19 Sur 0 1012.5 -0.7 85
2019-05-31 14:00:00 21.1 11 Sur 15 Sudeste 0 1012.8 -0.3 83
2019-05-31 13:00:00 21.1 9 Sudeste 17 Sur 0 1013.2 0.3 83
2019-05-31 12:00:00 20.7 12 Sur 21 Sudeste 0 1013.2 0.1 84
2019-05-31 11:00:00 20.3 11 Sur 15 Sur 0 1013.1 0.4 83
2019-05-31 10:00:00 20.1 10 Sur 17 Sur 0 1012.9 0.4 83
2019-05-31 09:00:00 20 4 Norte 10 Noroeste 0 1013.1 0.9 79
2019-05-31 08:00:00 17.5 8 Noroeste 14 Noroeste 0 1012.7 0.5 84
2019-05-31 07:00:00 17.4 5 Noroeste 10 Noroeste 0 1012.5 0.1 86
2019-05-31 06:00:00 17.9 7 Noroeste 12 Noroeste 0 1012.2 -0.6 87
2019-05-31 05:00:00 18.7 3 Noroeste 24 Nordeste 0 1012.2 -1.3 85
2019-05-31 04:00:00 19 8 Norte 26 Noroeste 0 1012.4 -1.4 84
2019-05-31 03:00:00 19.1 4 Norte 12 Nordeste 0 1012.8 -1.4 84
2019-05-31 02:00:00 19.4 2 Sur 10 Sur 0 1013.5 -0.6 90
2019-05-31 01:00:00 19.6 8 Sudeste 11 Sudeste 0 1013.8 0 90
2019-05-31 00:00:00 20.1 4 Noroeste 30 Norte 0 1014.2 0.8 84
2019-05-30 23:00:00 20.3 6 Norte 36 Noroeste 0 1014.1 0.8 80
2019-05-30 22:00:00 20.4 21 Norte 39 Nordeste 0 1013.8 0.8 79
2019-05-30 21:00:00 20.5 16 Norte 37 Nordeste 0 1013.4 0.1 80
2019-05-30 20:00:00 21.9 5 Norte 27 Sudoeste 0 1013.3 0.1 77
2019-05-30 19:00:00 21.4 12 Sur 24 Sur 0 1013 -0.8 83
2019-05-30 18:00:00 20.9 16 Sur 25 Sur 0 1013.3 -1 83
2019-05-30 17:00:00 20.8 17 Sur 26 Sur 0 1013.2 -1.4 83
2019-05-30 16:00:00 21 14 Sur 19 Sur 0 1013.8 -1 82
2019-05-30 15:00:00 21.3 10 Sur 16 Sur 0 1014.3 -0.3 81
2019-05-30 14:00:00 22 4 Sudeste 15 Sudeste 0 1014.6 0.3 79
2019-05-30 13:00:00 21.1 8 Sudeste 23 Sur 0 1014.8 0.5 80
2019-05-30 12:00:00 20.6 14 Sur 27 Este 0 1014.6 0.4 80
2019-05-30 11:00:00 21.6 9 Nordeste 32 Nordeste 0 1014.3 0 74
2019-05-30 10:00:00 20.8 13 Nordeste 35 Norte 0 1014.3 0.3 76
2019-05-30 09:00:00 20 8 Norte 17 Norte 0 1014.2 0.8 78
2019-05-30 08:00:00 17.8 6 Noroeste 13 Noroeste 0 1014.3 0.7 80
2019-05-30 07:00:00 18.2 7 Noroeste 25 Norte 0 1014 0.7 80
2019-05-30 06:00:00 19 12 Norte 33 Noroeste 0 1013.4 -0.2 80
2019-05-30 05:00:00 19 14 Norte 33 Norte 0 1013.6 -0.9 81
2019-05-30 04:00:00 19.2 21 Norte 45 Norte 0 1013.3 -1.5 80
2019-05-30 03:00:00 19.5 18 Norte 38 Norte 0 1013.6 -1.8 80
2019-05-30 02:00:00 19.8 16 Norte 43 Noroeste 0 1014.5 -0.9 79
2019-05-30 01:00:00 19.9 23 Norte 39 Norte 0 1014.8 0.7 78
2019-05-30 00:00:00 19.7 22 Norte 45 Norte 0 1015.4 1.8 80
2019-05-29 23:00:00 19.9 21 Norte 51 Norte 0 1015.4 1.9 81
2019-05-29 22:00:00 20.2 28 Norte 53 Norte 0 1014.1 0.2 80
2019-05-29 21:00:00 20.4 26 Norte 45 Norte 0 1013.6 -0.4 80
2019-05-29 20:00:00 22.3 2 Sudoeste 13 Oeste 0 1013.5 -0.5 78
2019-05-29 19:00:00 22.1 5 Sur 14 Este 0 1013.9 -0.5 79
2019-05-29 18:00:00 22.6 4 Sudeste 20 Sur 0 1014 -0.2 78
2019-05-29 17:00:00 22 11 Sur 19 Sur 0 1014 -0.7 79
2019-05-29 16:00:00 22.1 8 Este 34 Nordeste 0 1014.4 -1.2 77
2019-05-29 15:00:00 23.9 10 Nordeste 44 Nordeste 0 1014.2 -1.7 68
2019-05-29 14:00:00 22.1 23 Nordeste 49 Nordeste 0 1014.7 -1.1 74
2019-05-29 13:00:00 21.9 18 Nordeste 39 Nordeste 0 1015.6 0.3 75
2019-05-29 12:00:00 21.5 8 Norte 40 Noroeste 0 1015.9 0.5 77
2019-05-29 11:00:00 20.9 16 Norte 41 Nordeste 0 1015.8 0.9 78
2019-05-29 10:00:00 20.5 21 Norte 41 Norte 0 1015.3 0.9 79
2019-05-29 09:00:00 19.6 13 Norte 36 Norte 0 1015.4 1.4 81
2019-05-29 08:00:00 19.2 16 Norte 40 Nordeste 0 1014.9 0.9 81
2019-05-29 07:00:00 19.3 22 Norte 46 Norte 0 1014.4 0.1 80
2019-05-29 06:00:00 19.3 19 Norte 42 Nordeste 0 1014 -0.5 80
2019-05-29 05:00:00 19.6 22 Norte 38 Nordeste 0 1014 -1 79
2019-05-29 04:00:00 19.4 21 Norte 39 Norte 0 1014.3 -1.2 80
2019-05-29 03:00:00 20 18 Norte 44 Norte 0 1014.5 -1.1 79
2019-05-29 02:00:00 20.2 20 Norte 46 Nordeste 0 1015 -0.4 80
2019-05-29 01:00:00 20.2 10 Norte 38 Norte 0 1015.5 0.5 80
2019-05-29 00:00:00 20.2 18 Norte 40 Norte 0 1015.6 1.3 79
2019-05-28 23:00:00 20.5 13 Norte 45 Norte 0 1015.4 1.6 79
2019-05-28 22:00:00 20.5 19 Norte 40 Norte 0 1015 1.5 80
2019-05-28 21:00:00 20.5 21 Norte 45 Norte 0 1014.3 0.7 81
2019-05-28 20:00:00 21.2 19 Norte 46 Norte 0 1013.8 -0.2 79
2019-05-28 19:00:00 22.2 19 Norte 35 Norte 0 1013.5 -0.6 76
2019-05-28 18:00:00 23.4 5 Noroeste 30 Norte 0 1013.6 -0.8 75
2019-05-28 17:00:00 22 10 Sur 26 Sur 0 1014 -0.3 85
2019-05-28 16:00:00 21.8 14 Sudeste 31 Sur 0 1014.1 -0.4 84
2019-05-28 15:00:00 22.9 3 Norte 42 Norte 0 1014.4 -0.4 75
2019-05-28 14:00:00 22 20 Norte 48 Norte 0 1014.3 -0.2 75
2019-05-28 13:00:00 22.4 16 Norte 41 Sudeste 0 1014.5 0.4 76
2019-05-28 12:00:00 22.7 0 Calma 32 Nordeste 0 1014.8 1.2 76
2019-05-28 11:00:00 22 9 Sudeste 35 Noroeste 0 1014.5 1.3 81
2019-05-28 10:00:00 21.7 13 Noroeste 44 Oeste 0 1014.1 1.5 78
2019-05-28 09:00:00 20.9 17 Noroeste 35 Noroeste 0 1013.6 0.8 78
2019-05-28 08:00:00 20.5 13 Noroeste 40 Oeste 0 1013.2 0.8 79
2019-05-28 07:00:00 20 15 Noroeste 40 Norte 0 1012.6 0.1 83
2019-05-28 06:00:00 20.2 15 Norte 34 Noroeste 0 1012.8 0.3 82
2019-05-28 05:00:00 20.4 15 Norte 33 Norte 0 1012.4 -0.6 80
2019-05-28 04:00:00 20.5 14 Norte 45 Norte 0 1012.5 -0.7 79
2019-05-28 03:00:00 20.5 21 Norte 45 Noroeste 0 1012.5 -1 80
2019-05-28 02:00:00 20.5 26 Norte 50 Norte 0 1013 -0.2 80
2019-05-28 01:00:00 21.2 21 Norte 43 Norte 0 1013.2 0.5 74
2019-05-28 00:00:00 21.3 21 Norte 39 Norte 0 1013.5 0.9 75
2019-05-27 23:00:00 21.2 21 Norte 49 Nordeste 0 1013.2 1.1 77
2019-05-27 22:00:00 22.1 16 Norte 38 Norte 0 1012.7 1 68
2019-05-27 21:00:00 22.4 10 Noroeste 32 Noroeste 0 1012.6 0.6 69
2019-05-27 20:00:00 24.7 8 Noroeste 30 Norte 0 1012.1 0.1 59
2019-05-27 19:00:00 26.2 10 Noroeste 30 Noroeste 0 1011.7 -0.5 51
2019-05-27 18:00:00 26.6 8 Norte 30 Noroeste 0 1012 -0.7 52
2019-05-27 17:00:00 25.3 13 Norte 39 Nordeste 0 1012 -1 59
2019-05-27 16:00:00 26.5 7 Norte 39 Norte 0 1012.2 -0.6 56
2019-05-27 15:00:00 21.8 17 Sur 24 Sur 0 1012.7 -0.5 83
2019-05-27 14:00:00 23.1 8 Sudeste 38 Norte 0 1013 -0.2 78
2019-05-27 13:00:00 23.9 19 Norte 41 Nordeste 0 1012.8 -0.4 67
2019-05-27 12:00:00 23.5 18 Norte 42 Norte 0 1013.2 0.7 67
2019-05-27 11:00:00 22.9 17 Norte 45 Norte 0 1013.2 0.7 71
2019-05-27 10:00:00 21.5 18 Norte 45 Nordeste 0 1013.2 1 74
2019-05-27 09:00:00 21.1 20 Norte 38 Norte 0 1012.5 0.3 74
2019-05-27 08:00:00 20.3 14 Norte 36 Norte 0 1012.5 0.3 77
2019-05-27 07:00:00 19.8 19 Norte 33 Norte 0 1012.2 -0.4 80
2019-05-27 06:00:00 19.9 15 Norte 37 Nordeste 0 1012.2 -0.8 78
2019-05-27 05:00:00 19.8 18 Norte 48 Nordeste 0 1012.2 -1.2 80
2019-05-27 04:00:00 20.3 14 Norte 37 Noroeste 0 1012.6 -1.4 78
2019-05-27 03:00:00 20.4 14 Noroeste 39 Nordeste 0 1013 -0.8 78
2019-05-27 02:00:00 20.3 14 Norte 37 Norte 0 1013.4 -0.3 79
2019-05-27 01:00:00 20.9 12 Noroeste 33 Norte 0 1014 0.7 74
2019-05-27 00:00:00 21.4 16 Norte 36 Nordeste 0 1013.8 0.8 70
2019-05-26 23:00:00 20.9 18 Norte 37 Norte 0 1013.7 0.8 73
2019-05-26 22:00:00 20.4 23 Norte 43 Norte 0 1013.3 0.5 77
2019-05-26 21:00:00 20.9 17 Norte 44 Nordeste 0 1013 0.1 75
2019-05-26 20:00:00 21 22 Norte 49 Noroeste 0 1012.9 -0.1 76
2019-05-26 19:00:00 21.2 23 Norte 51 Noroeste 0 1012.8 -0.5 76
2019-05-26 18:00:00 22 19 Norte 54 Norte 0 1012.9 -0.9 73
2019-05-26 17:00:00 21.5 24 Norte 49 Norte 0 1013 -1.4 75
2019-05-26 16:00:00 22.6 18 Norte 45 Norte 0 1013.3 -1.8 69
2019-05-26 15:00:00 23.5 15 Norte 45 Norte 0 1013.8 -0.9 68
2019-05-26 14:00:00 22.5 15 Norte 54 Nordeste 0 1014.4 -0.7 69
2019-05-26 13:00:00 22 14 Noroeste 46 Norte 0 1015.1 0.7 70
2019-05-26 12:00:00 21.7 20 Norte 46 Norte 0 1014.7 0.9 72
2019-05-26 11:00:00 20.9 16 Noroeste 40 Nordeste 0 1015.1 1.3 76
2019-05-26 10:00:00 21 19 Noroeste 43 Norte 0 1014.4 0.6 77
2019-05-26 09:00:00 20.4 18 Noroeste 46 Norte 0 1013.8 -0.2 77
2019-05-26 08:00:00 19.9 18 Norte 40 Nordeste 0 1013.8 0.1 80
2019-05-26 07:00:00 19.4 12 Noroeste 39 Noroeste 0 1013.8 -0.2 76
2019-05-26 06:00:00 19.5 12 Norte 35 Noroeste 0 1014 -0.3 75
2019-05-26 05:00:00 19.6 18 Norte 36 Nordeste 0 1013.7 -0.8 76
2019-05-26 04:00:00 19.8 14 Norte 35 Norte 0 1014 -0.7 78
2019-05-26 03:00:00 19.7 14 Noroeste 42 Norte 0 1014.3 -0.7 75
2019-05-26 02:00:00 19.8 17 Noroeste 44 Noroeste 0 1014.5 -0.2 76
2019-05-26 01:00:00 19.9 18 Noroeste 55 Noroeste 0 1014.7 -0.1 77
2019-05-26 00:00:00 19.9 24 Norte 53 Norte 0 1015 0.4 79
2019-05-25 23:00:00 20 21 Noroeste 51 Norte 0 1014.7 0.8 77
2019-05-25 22:00:00 20.2 16 Noroeste 61 Nordeste 0 1014.8 1 77
2019-05-25 21:00:00 20.4 16 Noroeste 42 Oeste 0 1014.6 0.5 78
2019-05-25 20:00:00 21.4 14 Noroeste 45 Noroeste 0 1013.9 -0.5 75
2019-05-25 19:00:00 22.4 15 Norte 41 Noroeste 0 1013.8 -1.1 74
2019-05-25 18:00:00 22.4 12 Noroeste 37 Noroeste 0 1014.1 -1.3 74
2019-05-25 17:00:00 22.6 18 Noroeste 53 Noroeste 0 1014.4 -1.2 76
2019-05-25 16:00:00 23.2 15 Noroeste 39 Noroeste 0 1014.9 -1.1 74
2019-05-25 15:00:00 23.6 17 Noroeste 45 Noroeste 0 1015.4 -0.4 74
2019-05-25 14:00:00 22.5 20 Noroeste 43 Oeste 0 1015.6 -0.2 74
2019-05-25 13:00:00 22 18 Noroeste 47 Noroeste 0 1016 0.5 78
2019-05-25 12:00:00 22 21 Noroeste 47 Noroeste 0 1015.8 0.7 78
2019-05-25 11:00:00 21.6 22 Noroeste 49 Noroeste 0 1015.8 0.9 77
2019-05-25 10:00:00 21.3 18 Noroeste 47 Norte 0 1015.5 1.4 79
2019-05-25 09:00:00 20.8 19 Norte 42 Noroeste 0 1015.1 0.9 77
2019-05-25 08:00:00 19.7 17 Noroeste 50 Norte 0 1014.9 1.1 83
2019-05-25 07:00:00 19.7 19 Noroeste 49 Noroeste 0 1014.1 0.1 81
2019-05-25 06:00:00 19.9 18 Noroeste 54 Noroeste 0 1014.2 0.1 79
2019-05-25 05:00:00 19.9 17 Noroeste 46 Noroeste 0 1013.8 -0.9 80
2019-05-25 04:00:00 19.8 15 Noroeste 48 Noroeste 0 1014 -0.8 77
2019-05-25 03:00:00 20.3 17 Norte 40 Noroeste 0 1014.1 -0.1 72
2019-05-25 02:00:00 20.4 19 Noroeste 45 Noroeste 0 1014.7 0.3 73
2019-05-25 01:00:00 20.6 18 Noroeste 43 Noroeste 0 1014.8 0.9 74
2019-05-25 00:00:00 21 17 Norte 45 Noroeste 0 1014.2 0.5 73